Terminal Aerodrome Forecast
Issued by NWS

Home | Current Version | Previous Version | Text Only | Print | Product List | Glossary Off
Versions: 1 2 3 4 5 6 7 8 9 10 11 12 13 14 15 16

000
FTUS43 KPAH 271720
TAFCGI
TAF
KCGI 271720Z 2718/2818 02010KT P6SM SCT025 BKN250
     FM272000 03008KT P6SM SCT030 BKN090
     FM280000 03007KT P6SM SCT030 BKN070
     FM280500 04006KT P6SM OVC060
     FM281500 07005KT P6SM SCT025 BKN060=

USA.gov is the U.S. government's official web portal to all federal, state and local government web resources and services.